Time;durP1;ratioP1;P1;durP2;ratioP2;P2;SDS_P1;SDS_P2;PMS_P1;PMS_P2;Temp;Humidity;BMP_temperature;BMP_pressure;BME280_temperature;BME280_humidity;BME280_pressure;Samples;Min_cycle;Max_cycle;Signal;HPM_P1;HPM_P2
2021/10/17 00:01:41;;;;;;;26.12;14.70;;;;;;;7.86;73.47;94894.75;1659813;85;20972;-57
2021/10/17 00:04:08;;;;;;;27.20;15.98;;;;;;;7.89;73.57;94887.66;1660255;85;21030;-56
2021/10/17 00:06:35;;;;;;;31.17;18.00;;;;;;;7.92;73.75;94892.28;1655463;85;21143;-57
2021/10/17 00:09:01;;;;;;;28.57;17.37;;;;;;;7.96;73.66;94894.33;1660310;85;21012;-57
2021/10/17 00:11:29;;;;;;;25.50;14.47;;;;;;;8.01;73.57;94892.45;1644510;85;21097;-58
2021/10/17 00:13:56;;;;;;;27.05;14.15;;;;;;;8.01;73.44;94895.97;1662568;85;21535;-57
2021/10/17 00:16:24;;;;;;;26.80;16.20;;;;;;;7.99;73.39;94892.10;1702190;83;21566;-57
2021/10/17 00:18:51;;;;;;;23.05;13.22;;;;;;;7.95;73.48;94888.09;1697740;83;21431;-56
2021/10/17 00:21:17;;;;;;;19.27;12.63;;;;;;;7.95;73.49;94883.98;1656618;85;21514;-57
2021/10/17 00:23:45;;;;;;;18.87;11.25;;;;;;;7.92;73.50;94888.92;1642517;86;21155;-58
2021/10/17 00:26:12;;;;;;;16.50;10.93;;;;;;;7.92;73.34;94883.45;1651204;86;20991;-56
2021/10/17 00:28:39;;;;;;;19.27;11.57;;;;;;;7.92;73.38;94886.80;1641421;87;21166;-58
2021/10/17 00:31:06;;;;;;;20.08;11.15;;;;;;;7.91;73.42;94883.28;1654095;84;21058;-58
2021/10/17 00:33:32;;;;;;;25.57;15.45;;;;;;;7.89;73.63;94883.55;1644718;87;21494;-56
2021/10/17 00:35:59;;;;;;;25.68;15.05;;;;;;;7.88;73.62;94877.29;1645599;86;21241;-57
2021/10/17 00:38:26;;;;;;;29.05;18.05;;;;;;;7.89;73.72;94873.34;1698820;83;21177;-60
2021/10/17 00:40:53;;;;;;;22.75;14.35;;;;;;;7.94;73.83;94875.60;1655566;84;21514;-57
2021/10/17 00:43:21;;;;;;;27.67;15.45;;;;;;;7.98;73.84;94871.39;1645569;86;21541;-56
2021/10/17 00:45:48;;;;;;;25.08;16.12;;;;;;;7.97;73.96;94875.33;1652933;86;21132;-56
2021/10/17 00:48:15;;;;;;;20.35;14.15;;;;;;;7.88;74.29;94871.81;1634161;86;21202;-56
2021/10/17 00:50:43;;;;;;;23.27;13.90;;;;;;;7.86;74.61;94874.20;1634299;86;21133;-56
2021/10/17 00:53:10;;;;;;;23.05;14.75;;;;;;;7.86;74.74;94871.47;1644269;86;21641;-56
2021/10/17 00:55:37;;;;;;;22.40;13.93;;;;;;;7.82;74.97;94872.16;1647085;85;21122;-56
2021/10/17 00:58:04;;;;;;;18.67;13.68;;;;;;;7.79;75.25;94874.38;1699324;83;20970;-57
2021/10/17 01:00:33;;;;;;;23.55;13.03;;;;;;;7.74;75.54;94874.86;1675901;84;21166;-57
2021/10/17 01:02:59;;;;;;;20.88;11.75;;;;;;;7.72;75.70;94871.78;1663746;85;21694;-57
2021/10/17 01:05:28;;;;;;;21.87;12.58;;;;;;;7.73;75.84;94870.58;1657140;86;21129;-59
2021/10/17 01:07:57;;;;;;;21.45;13.08;;;;;;;7.72;75.99;94868.29;1641544;86;21110;-57
2021/10/17 01:10:26;;;;;;;26.37;13.78;;;;;;;7.72;76.16;94880.00;1639484;86;21156;-56
2021/10/17 01:12:54;;;;;;;23.07;15.10;;;;;;;7.67;76.30;94873.66;1607408;86;21535;-55
2021/10/17 01:15:21;;;;;;;25.20;14.23;;;;;;;7.65;76.41;94880.75;1626619;86;21025;-56
2021/10/17 01:17:51;;;;;;;26.93;14.60;;;;;;;7.64;76.45;94875.89;1639068;86;21051;-58
2021/10/17 01:20:18;;;;;;;29.52;15.32;;;;;;;7.67;76.35;94877.77;1643403;86;21039;-58
2021/10/17 01:22:46;;;;;;;28.00;14.87;;;;;;;7.68;76.30;94879.31;1639468;86;21172;-57
2021/10/17 01:25:13;;;;;;;23.85;14.87;;;;;;;7.70;76.24;94881.02;1678280;83;21142;-56
2021/10/17 01:27:40;;;;;;;25.40;14.35;;;;;;;7.70;76.36;94878.90;1696192;83;20978;-62
2021/10/17 01:30:08;;;;;;;22.17;13.78;;;;;;;7.70;76.51;94876.92;1691301;83;21118;-56
2021/10/17 01:32:37;;;;;;;22.48;14.68;;;;;;;7.76;76.30;94877.97;1689021;83;21057;-57
2021/10/17 01:35:06;;;;;;;23.30;13.55;;;;;;;7.75;76.17;94873.70;1682863;83;20971;-57
2021/10/17 01:37:32;;;;;;;22.32;13.65;;;;;;;7.70;76.16;94879.66;1702837;82;21787;-57
2021/10/17 01:40:00;;;;;;;24.25;13.90;;;;;;;7.67;76.22;94875.03;1651383;86;21253;-57
2021/10/17 01:42:28;;;;;;;25.32;13.25;;;;;;;7.65;76.32;94870.58;1687467;83;20995;-57
2021/10/17 01:44:56;;;;;;;26.42;13.85;;;;;;;7.69;76.38;94875.38;1702980;83;21069;-57
2021/10/17 01:47:25;;;;;;;25.82;14.65;;;;;;;7.72;76.34;94865.55;1664796;85;20979;-54
2021/10/17 01:49:54;;;;;;;21.25;14.25;;;;;;;7.73;76.45;94870.58;1638509;86;22008;-56
2021/10/17 01:52:22;;;;;;;20.90;14.83;;;;;;;7.76;76.34;94863.50;1669216;83;20986;-56
2021/10/17 01:54:49;;;;;;;19.85;13.60;;;;;;;7.79;76.20;94867.53;1690921;82;21690;-57
2021/10/17 01:57:18;;;;;;;21.75;14.40;;;;;;;7.79;76.00;94864.02;1686191;83;21191;-57
2021/10/17 01:59:46;;;;;;;21.27;13.38;;;;;;;7.74;75.98;94861.17;1686730;83;21010;-57
2021/10/17 02:02:14;;;;;;;22.20;13.50;;;;;;;7.71;76.02;94864.77;1701470;83;21153;-55
2021/10/17 02:04:41;;;;;;;18.73;12.63;;;;;;;7.70;76.14;94862.47;1693580;83;20955;-56
2021/10/17 02:07:09;;;;;;;22.00;13.40;;;;;;;7.71;76.15;94862.03;1652642;84;21034;-57
2021/10/17 02:09:36;;;;;;;20.60;12.95;;;;;;;7.72;76.27;94864.94;1694363;83;21112;-56
2021/10/17 02:12:05;;;;;;;21.62;12.53;;;;;;;7.74;76.17;94863.16;1665536;84;20974;-57
2021/10/17 02:14:34;;;;;;;20.90;12.55;;;;;;;7.72;76.09;94859.46;1692631;83;22019;-56
2021/10/17 02:17:05;;;;;;;23.87;12.98;;;;;;;7.66;76.05;94854.33;1679951;84;21011;-57
2021/10/17 02:19:32;;;;;;;23.02;12.58;;;;;;;7.58;76.20;94855.70;1683283;83;20978;-57
2021/10/17 02:22:00;;;;;;;23.15;13.20;;;;;;;7.52;76.41;94858.74;1700344;83;21054;-57
2021/10/17 02:24:28;;;;;;;25.60;14.93;;;;;;;7.53;76.61;94860.28;1701913;83;21022;-57
2021/10/17 02:26:55;;;;;;;26.70;14.45;;;;;;;7.55;76.81;94853.78;1696905;83;21185;-56
2021/10/17 02:29:26;;;;;;;28.25;14.75;;;;;;;7.59;76.92;94847.66;1688717;83;21014;-56
2021/10/17 02:31:59;;;;;;;32.23;16.80;;;;;;;7.63;76.85;94853.81;1695064;83;20979;-57
2021/10/17 02:34:25;;;;;;;26.82;16.20;;;;;;;7.64;76.81;94845.77;1682597;84;20970;-57
2021/10/17 02:36:52;;;;;;;30.20;15.63;;;;;;;7.67;76.81;94857.23;1698492;82;21062;-56
2021/10/17 02:39:20;;;;;;;24.55;14.03;;;;;;;7.67;76.70;94853.12;1704621;83;21144;-56
2021/10/17 02:41:47;;;;;;;30.12;16.40;;;;;;;7.63;76.69;94853.81;1683206;83;21605;-57
2021/10/17 02:44:13;;;;;;;28.75;15.45;;;;;;;7.63;76.97;94847.55;1693245;83;20965;-57
2021/10/17 02:46:40;;;;;;;27.05;15.43;;;;;;;7.63;76.99;94863.39;1692911;83;21128;-56
2021/10/17 02:49:08;;;;;;;28.73;15.28;;;;;;;7.63;77.24;94853.81;1695008;83;20980;-58
2021/10/17 02:51:36;;;;;;;28.02;16.55;;;;;;;7.66;77.02;94851.59;1694462;83;21597;-57
2021/10/17 02:54:03;;;;;;;31.45;18.10;;;;;;;7.67;77.06;94848.27;1693330;83;20967;-57
2021/10/17 02:56:31;;;;;;;33.33;18.23;;;;;;;7.70;77.08;94846.80;1684965;83;21066;-56
2021/10/17 02:58:57;;;;;;;58.65;29.30;;;;;;;7.73;76.97;94853.40;1699404;83;21480;-58
2021/10/17 03:01:25;;;;;;;56.98;28.92;;;;;;;7.73;76.87;94853.40;1664814;84;21033;-57
2021/10/17 03:03:52;;;;;;;49.75;28.50;;;;;;;7.67;76.83;94853.12;1683114;83;21194;-57
2021/10/17 03:06:25;;;;;;;54.42;26.75;;;;;;;7.65;77.09;94856.89;1687589;83;21482;-58
2021/10/17 03:08:49;;;;;;;36.58;21.00;;;;;;;7.60;77.21;94860.14;1693324;83;21022;-56
2021/10/17 03:11:18;;;;;;;31.37;16.45;;;;;;;7.57;77.41;94859.62;1647745;85;21009;-57
2021/10/17 03:13:46;;;;;;;27.93;16.80;;;;;;;7.55;77.50;94863.98;1631129;87;21117;-56
2021/10/17 03:16:15;;;;;;;22.42;14.68;;;;;;;7.53;77.66;94861.66;1638364;86;21382;-56
2021/10/17 03:18:42;;;;;;;24.65;15.13;;;;;;;7.57;77.79;94864.32;1658425;85;20978;-56
2021/10/17 03:21:10;;;;;;;30.50;16.55;;;;;;;7.62;77.64;94859.70;1640686;85;21217;-57
2021/10/17 03:26:23;;;;;;;25.37;15.28;;;;;;;7.73;77.46;94854.77;1768761;79;27116;-68
2021/10/17 03:28:50;;;;;;;36.50;18.12;;;;;;;7.74;77.44;94865.28;1739500;81;21081;-69
2021/10/17 03:31:18;;;;;;;27.75;17.65;;;;;;;7.76;77.28;94861.55;1733746;81;21162;-69
2021/10/17 03:33:45;;;;;;;30.15;18.42;;;;;;;7.74;77.18;94859.80;1737564;81;20962;-68
2021/10/17 03:36:13;;;;;;;27.13;16.07;;;;;;;7.71;77.14;94853.81;1729175;81;20970;-67
2021/10/17 03:38:41;;;;;;;24.65;14.85;;;;;;;7.64;77.10;94859.46;1730491;81;21191;-67
2021/10/17 03:41:13;;;;;;;32.58;15.38;;;;;;;7.57;77.28;94862.37;1738126;81;21548;-66
2021/10/17 03:43:41;;;;;;;24.75;15.13;;;;;;;7.51;77.38;94859.94;1730266;81;21730;-69
2021/10/17 03:46:08;;;;;;;23.55;15.43;;;;;;;7.47;77.52;94866.09;1736830;81;21106;-68
2021/10/17 03:48:35;;;;;;;24.63;13.80;;;;;;;7.45;77.81;94861.64;1743031;81;21084;-68
2021/10/17 03:51:08;;;;;;;25.10;15.55;;;;;;;7.48;78.04;94862.16;1738468;81;21010;-67
2021/10/17 03:53:33;;;;;;;25.27;14.53;;;;;;;7.51;77.90;94861.92;1727290;81;21009;-67
2021/10/17 03:55:59;;;;;;;26.20;15.00;;;;;;;7.55;77.83;94863.98;1744148;81;21145;-68
2021/10/17 03:58:26;;;;;;;26.93;15.18;;;;;;;7.56;77.72;94859.42;1738595;81;20955;-66
2021/10/17 04:00:53;;;;;;;27.42;15.43;;;;;;;7.56;77.64;94865.52;1736632;81;21048;-66
2021/10/17 04:03:20;;;;;;;29.12;15.80;;;;;;;7.48;77.61;94855.32;1729721;81;21136;-67
2021/10/17 04:05:48;;;;;;;22.30;14.93;;;;;;;7.42;77.84;94862.50;1726854;81;21052;-67
2021/10/17 04:08:15;;;;;;;27.40;16.87;;;;;;;7.42;78.08;94858.39;1736649;81;21160;-68
2021/10/17 04:10:42;;;;;;;32.15;18.82;;;;;;;7.42;78.11;94861.13;1726236;81;20949;-66
2021/10/17 04:13:08;;;;;;;26.95;15.95;;;;;;;7.41;78.33;94858.22;1725180;81;21421;-67
2021/10/17 04:15:37;;;;;;;29.32;16.90;;;;;;;7.41;78.39;94858.80;1734960;81;21096;-67
2021/10/17 04:18:05;;;;;;;29.77;17.17;;;;;;;7.38;78.38;94859.05;1737245;81;21050;-68
2021/10/17 04:20:33;;;;;;;35.52;19.02;;;;;;;7.35;78.43;94859.14;1740723;81;21155;-68
2021/10/17 04:23:01;;;;;;;22.98;15.63;;;;;;;7.34;78.57;94858.97;1731688;81;21064;-68
2021/10/17 04:25:30;;;;;;;23.62;15.72;;;;;;;7.33;78.63;94852.70;1717656;81;21091;-68
2021/10/17 04:27:56;;;;;;;26.90;14.10;;;;;;;7.30;78.65;94861.02;1708816;82;21129;-68
2021/10/17 04:30:23;;;;;;;24.27;14.90;;;;;;;7.25;78.70;94859.53;1718059;83;21035;-67
2021/10/17 04:32:50;;;;;;;21.45;14.73;;;;;;;7.23;78.74;94859.77;1705797;83;21109;-68
2021/10/17 04:35:16;;;;;;;22.87;14.53;;;;;;;7.24;78.83;94857.21;1705610;83;21606;-66
2021/10/17 04:37:43;;;;;;;25.37;14.10;;;;;;;7.27;78.80;94859.09;1708592;83;21066;-68
2021/10/17 04:40:11;;;;;;;24.10;15.30;;;;;;;7.32;78.65;94856.64;1700454;83;21202;-67
2021/10/17 04:42:37;;;;;;;25.85;15.68;;;;;;;7.31;78.65;94863.31;1702411;82;21061;-68
2021/10/17 04:45:05;;;;;;;23.00;14.55;;;;;;;7.31;78.83;94865.29;1709890;82;21165;-68
2021/10/17 04:47:34;;;;;;;19.75;14.10;;;;;;;7.33;78.69;94867.76;1700977;83;20978;-69
2021/10/17 04:50:01;;;;;;;27.02;15.35;;;;;;;7.34;78.52;94869.91;1713626;83;21059;-67
2021/10/17 04:52:28;;;;;;;29.67;18.17;;;;;;;7.32;78.49;94873.06;1715063;82;21190;-68
2021/10/17 04:54:55;;;;;;;29.90;18.25;;;;;;;7.32;78.53;94878.53;1704426;82;21069;-67
2021/10/17 04:57:24;;;;;;;31.65;19.05;;;;;;;7.34;78.38;94876.14;1709928;83;22110;-69
2021/10/17 04:59:51;;;;;;;26.10;17.60;;;;;;;7.36;78.46;94875.12;1714050;82;21069;-67
2021/10/17 05:02:18;;;;;;;30.60;18.07;;;;;;;7.39;78.38;94874.30;1698026;82;21150;-68
2021/10/17 05:04:47;;;;;;;35.65;18.80;;;;;;;7.35;78.37;94885.89;1717014;83;21150;-68
2021/10/17 05:07:15;;;;;;;35.58;19.27;;;;;;;7.32;78.56;94881.27;1716575;82;21047;-68
2021/10/17 05:09:42;;;;;;;32.70;18.92;;;;;;;7.33;78.56;94885.55;1712089;82;21155;-68
2021/10/17 05:12:10;;;;;;;33.92;17.90;;;;;;;7.34;78.57;94884.97;1715726;82;20988;-68
2021/10/17 05:14:37;;;;;;;33.28;16.75;;;;;;;7.38;78.51;94887.02;1721824;82;21003;-67
2021/10/17 05:17:04;;;;;;;24.70;16.07;;;;;;;7.41;78.46;94888.33;1715396;83;21043;-69
2021/10/17 05:19:32;;;;;;;25.48;16.60;;;;;;;7.45;78.34;94888.23;1705473;83;21183;-68
2021/10/17 05:22:00;;;;;;;32.75;17.20;;;;;;;7.41;78.29;94897.91;1710319;82;21147;-69
2021/10/17 05:24:27;;;;;;;25.25;16.10;;;;;;;7.42;78.26;94898.66;1704535;83;21047;-70
2021/10/17 05:26:54;;;;;;;25.75;16.25;;;;;;;7.43;78.30;94898.25;1712053;83;21089;-69
2021/10/17 05:29:22;;;;;;;35.60;16.25;;;;;;;7.48;78.28;94897.74;1708073;83;21524;-67
2021/10/17 05:31:49;;;;;;;26.75;15.43;;;;;;;7.52;78.12;94901.78;1700967;83;21111;-68
2021/10/17 05:34:16;;;;;;;29.67;16.40;;;;;;;7.51;78.06;94905.11;1708516;82;21148;-68
2021/10/17 05:36:43;;;;;;;26.73;15.32;;;;;;;7.52;78.05;94901.17;1718532;83;21042;-69
2021/10/17 05:39:11;;;;;;;25.88;17.02;;;;;;;7.51;78.13;94909.21;1704390;83;21518;-69
2021/10/17 05:41:39;;;;;;;21.97;14.68;;;;;;;7.58;78.23;94909.08;1711159;83;21127;-69
2021/10/17 05:44:06;;;;;;;26.10;17.48;;;;;;;7.66;77.87;94909.09;1706247;82;21228;-70
2021/10/17 05:46:34;;;;;;;29.12;17.95;;;;;;;7.70;77.66;94913.88;1711474;82;21148;-69
2021/10/17 05:49:01;;;;;;;31.68;20.27;;;;;;;7.72;77.44;94917.58;1707747;82;21141;-69
2021/10/17 05:51:28;;;;;;;29.23;18.85;;;;;;;7.69;77.43;94910.97;1714008;82;21542;-69
2021/10/17 05:53:55;;;;;;;32.70;18.62;;;;;;;7.73;77.35;94915.02;1722007;82;21043;-69
2021/10/17 05:56:22;;;;;;;32.10;18.98;;;;;;;7.77;77.32;94911.01;1716569;82;21063;-69
2021/10/17 05:58:50;;;;;;;30.62;19.40;;;;;;;7.86;77.02;94915.29;1696960;83;21196;-68
2021/10/17 06:01:17;;;;;;;26.82;18.35;;;;;;;7.92;76.62;94910.84;1706814;82;21241;-68
2021/10/17 06:03:45;;;;;;;23.25;16.27;;;;;;;7.98;76.50;94913.27;1706026;82;21032;-68
2021/10/17 06:06:31;;;;;;;45.60;26.05;;;;;;;8.06;76.29;94918.74;1721327;82;21088;-69
2021/10/17 06:09:01;;;;;;;37.60;22.77;;;;;;;8.06;76.06;94917.98;1704436;82;21126;-68
2021/10/17 06:11:28;;;;;;;35.20;20.43;;;;;;;8.04;75.97;94918.40;1717345;83;21167;-70
2021/10/17 06:13:55;;;;;;;32.10;20.02;;;;;;;8.04;75.94;94918.40;1709775;82;21430;-70
2021/10/17 06:16:22;;;;;;;32.75;18.67;;;;;;;8.04;76.01;94919.02;1717380;82;20989;-70
2021/10/17 06:18:49;;;;;;;35.63;22.02;;;;;;;8.09;75.82;94913.02;1702271;82;21076;-70
2021/10/17 06:21:16;;;;;;;37.88;20.62;;;;;;;8.14;75.66;94920.14;1713348;82;21128;-69
2021/10/17 06:23:43;;;;;;;26.97;17.00;;;;;;;8.21;75.70;94919.98;1712181;83;21154;-67
2021/10/17 06:26:10;;;;;;;30.02;18.80;;;;;;;8.28;75.51;94928.64;1712970;82;21527;-69
2021/10/17 06:28:38;;;;;;;29.80;19.50;;;;;;;8.32;75.27;94925.22;1706976;83;21076;-69
2021/10/17 06:31:05;;;;;;;35.90;19.92;;;;;;;8.33;75.00;94929.50;1715371;82;21221;-69
2021/10/17 06:33:33;;;;;;;38.73;23.67;;;;;;;8.34;74.84;94930.45;1700988;83;21094;-70
2021/10/17 06:36:00;;;;;;;42.30;20.77;;;;;;;8.37;74.85;94928.22;1711201;82;21129;-68
2021/10/17 06:38:27;;;;;;;40.03;20.12;;;;;;;8.42;74.60;94926.95;1709378;83;21090;-69
2021/10/17 06:40:53;;;;;;;29.80;16.45;;;;;;;8.48;74.40;94926.59;1715256;83;21623;-70
2021/10/17 06:43:21;;;;;;;38.15;22.82;;;;;;;8.56;74.20;94938.33;1707380;82;21008;-68
2021/10/17 06:45:53;;;;;;;21.75;14.23;;;;;;;8.63;74.09;94921.69;1706381;82;21054;-66
2021/10/17 06:48:20;;;;;;;20.25;14.83;;;;;;;8.67;73.63;94927.09;1709346;83;21130;-69
2021/10/17 06:50:47;;;;;;;19.23;13.08;;;;;;;8.69;73.22;94922.73;1698186;82;20979;-69
2021/10/17 06:53:14;;;;;;;21.00;14.45;;;;;;;8.73;72.95;94922.62;1712904;82;21026;-69
2021/10/17 06:55:41;;;;;;;24.87;15.38;;;;;;;8.75;72.82;94933.34;1704345;83;21099;-68
2021/10/17 06:58:08;;;;;;;32.83;15.63;;;;;;;8.75;72.62;94929.22;1715620;82;21151;-69
2021/10/17 07:00:35;;;;;;;26.68;15.32;;;;;;;8.75;72.41;94921.00;1704057;83;21470;-67
2021/10/17 07:03:02;;;;;;;22.27;14.10;;;;;;;8.81;72.08;94920.64;1704531;83;21047;-69
2021/10/17 07:05:30;;;;;;;18.77;11.83;;;;;;;8.86;71.88;94922.09;1709156;83;20994;-69
2021/10/17 07:07:59;;;;;;;17.82;11.85;;;;;;;8.92;71.93;94926.01;1706579;82;21261;-69
2021/10/17 07:10:26;;;;;;;18.32;11.10;;;;;;;8.94;71.45;94915.41;1720012;82;21082;-67
2021/10/17 07:13:11;;;;;;;15.85;11.65;;;;;;;8.96;71.26;94919.06;1704219;82;21174;-69
2021/10/17 07:15:51;;;;;;;18.92;11.63;;;;;;;9.06;70.86;94923.52;1712221;82;21127;-69
2021/10/17 07:18:20;;;;;;;19.75;11.83;;;;;;;9.14;70.60;94919.37;1705602;83;21033;-69
2021/10/17 07:20:47;;;;;;;21.27;12.30;;;;;;;9.22;70.40;94917.37;1719539;82;21083;-69
2021/10/17 07:23:14;;;;;;;17.02;10.58;;;;;;;9.29;70.15;94926.02;1699280;83;21014;-69
2021/10/17 07:25:41;;;;;;;15.32;10.15;;;;;;;9.31;69.42;94920.86;1714347;82;21126;-68
2021/10/17 07:28:08;;;;;;;25.25;11.75;;;;;;;9.37;69.37;94925.97;1711673;82;21035;-69
2021/10/17 07:30:37;;;;;;;20.60;10.90;;;;;;;9.41;68.86;94924.67;1707040;82;21094;-70
2021/10/17 07:33:04;;;;;;;18.73;12.65;;;;;;;9.43;68.49;94917.39;1708427;83;21090;-66
2021/10/17 07:35:31;;;;;;;14.43;10.23;;;;;;;9.54;68.65;94927.45;1696242;83;21621;-68
2021/10/17 07:37:58;;;;;;;21.37;11.78;;;;;;;9.65;68.27;94922.44;1696068;83;21087;-70
2021/10/17 07:40:24;;;;;;;20.32;12.05;;;;;;;9.68;67.99;94918.81;1712687;82;21534;-69
2021/10/17 07:42:52;;;;;;;18.52;11.97;;;;;;;9.75;67.47;94918.59;1708775;82;21114;-69
2021/10/17 07:45:21;;;;;;;19.50;11.08;;;;;;;9.84;66.99;94915.36;1702405;82;21012;-69
2021/10/17 07:47:50;;;;;;;15.28;10.72;;;;;;;9.93;66.47;94910.59;1683656;82;21167;-69
2021/10/17 07:50:16;;;;;;;16.70;10.10;;;;;;;10.02;66.12;94910.13;1684427;83;21136;-69
2021/10/17 07:52:45;;;;;;;18.00;12.07;;;;;;;10.02;65.69;94910.75;1686462;83;21000;-68
2021/10/17 07:55:16;;;;;;;39.10;12.63;;;;;;;10.07;65.99;94910.98;1687916;82;21499;-69
2021/10/17 07:57:51;;;;;;;41.20;15.00;;;;;;;10.17;66.18;94918.11;1704081;84;21024;-69
2021/10/17 08:00:25;;;;;;;16.90;9.93;;;;;;;10.29;65.73;94912.44;1691609;83;21143;-69
2021/10/17 08:02:53;;;;;;;29.82;21.68;;;;;;;10.42;65.50;94914.59;1688892;83;21237;-70
2021/10/17 08:05:22;;;;;;;13.88;11.18;;;;;;;10.47;64.61;94912.65;1691790;83;21026;-69
2021/10/17 08:07:49;;;;;;;43.75;30.00;;;;;;;10.51;63.48;94911.95;1690999;83;21655;-70
2021/10/17 08:10:18;;;;;;;30.08;22.90;;;;;;;10.46;62.62;94913.27;1697021;82;21068;-69
2021/10/17 08:12:46;;;;;;;20.02;16.25;;;;;;;10.44;62.62;94910.78;1692943;83;21007;-68
2021/10/17 08:15:12;;;;;;;26.15;15.55;;;;;;;10.47;61.99;94904.39;1699446;83;21149;-69
2021/10/17 08:17:40;;;;;;;12.30;9.70;;;;;;;10.46;62.12;94909.73;1685962;83;21518;-69
2021/10/17 08:20:10;;;;;;;8.70;7.80;;;;;;;10.53;62.54;94905.40;1691331;83;21026;-69
2021/10/17 08:22:39;;;;;;;9.75;8.23;;;;;;;10.56;61.97;94908.63;1697243;83;21597;-67
2021/10/17 08:25:08;;;;;;;11.83;10.25;;;;;;;10.61;62.15;94910.81;1692358;83;21450;-70
2021/10/17 08:27:39;;;;;;;10.38;7.83;;;;;;;10.66;61.83;94904.16;1696064;83;21044;-71
2021/10/17 08:30:08;;;;;;;13.78;8.30;;;;;;;10.73;61.61;94904.53;1687965;82;21109;-70
2021/10/17 08:32:37;;;;;;;9.98;7.33;;;;;;;10.74;61.59;94907.61;1694514;83;21110;-69
2021/10/17 08:35:07;;;;;;;12.03;7.97;;;;;;;10.75;61.35;94909.14;1710714;83;21032;-70
2021/10/17 08:37:35;;;;;;;9.88;6.97;;;;;;;10.77;61.04;94912.22;1694400;83;20970;-69
2021/10/17 08:40:12;;;;;;;13.68;7.45;;;;;;;10.78;61.11;94909.63;1720492;82;21166;-69
2021/10/17 08:42:59;;;;;;;11.18;8.00;;;;;;;10.75;60.78;94908.36;1686256;82;20971;-72
2021/10/17 08:45:29;;;;;;;8.93;7.42;;;;;;;10.75;60.72;94905.02;1698778;82;21472;-71
2021/10/17 08:47:57;;;;;;;10.38;7.80;;;;;;;10.80;60.63;94897.56;1691448;83;21338;-72
2021/10/17 08:50:24;;;;;;;10.98;7.95;;;;;;;10.79;60.71;94897.41;1692044;83;21117;-72
2021/10/17 08:52:51;;;;;;;11.18;7.60;;;;;;;10.83;60.36;94897.30;1701861;83;21137;-72
2021/10/17 08:55:19;;;;;;;9.43;7.50;;;;;;;10.83;60.42;94899.42;1697023;83;21228;-70
2021/10/17 08:57:49;;;;;;;11.38;8.33;;;;;;;10.82;60.21;94903.39;1701725;83;21022;-68
2021/10/17 09:00:32;;;;;;;15.10;8.75;;;;;;;10.81;60.28;94899.10;1656546;84;21139;-71
2021/10/17 09:03:02;;;;;;;14.25;11.00;;;;;;;10.79;60.13;94902.91;1708848;83;21586;-72
2021/10/17 09:05:40;;;;;;;21.27;13.18;;;;;;;10.75;59.88;94898.14;1686348;83;21174;-69
2021/10/17 09:08:16;;;;;;;17.17;11.55;;;;;;;10.65;59.98;94891.62;1687925;82;21104;-68
2021/10/17 09:10:49;;;;;;;13.32;9.48;;;;;;;10.52;60.24;94898.36;1696725;83;20988;-72
2021/10/17 09:13:16;;;;;;;19.27;11.30;;;;;;;10.39;60.39;94900.34;1679066;83;21081;-70
2021/10/17 09:15:44;;;;;;;17.85;10.28;;;;;;;10.35;60.75;94899.70;1689545;83;21057;-73
2021/10/17 09:18:23;;;;;;;10.98;9.18;;;;;;;10.51;61.28;94898.20;1697020;83;21172;-71
2021/10/17 09:20:55;;;;;;;11.35;7.83;;;;;;;10.75;60.83;94891.26;1689490;83;21530;-70
2021/10/17 09:23:28;;;;;;;11.70;8.83;;;;;;;11.03;60.17;94887.55;1700392;83;21015;-69
2021/10/17 09:25:58;;;;;;;10.20;8.10;;;;;;;11.24;60.00;94885.42;1692908;83;21031;-71
2021/10/17 09:28:29;;;;;;;11.95;7.87;;;;;;;11.57;59.08;94885.82;1705142;82;21070;-71
2021/10/17 09:31:06;;;;;;;11.03;7.97;;;;;;;11.86;58.69;94886.31;1689838;83;21205;-71
2021/10/17 09:33:47;;;;;;;11.40;7.72;;;;;;;12.09;57.47;94885.17;1695891;83;21519;-73
2021/10/17 09:36:25;;;;;;;11.10;8.00;;;;;;;12.30;56.84;94884.34;1688251;83;21163;-69
2021/10/17 09:41:53;;;;;;;6.90;6.17;;;;;;;13.22;55.80;94880.70;1696469;83;21146;-70
2021/10/17 09:44:20;;;;;;;9.58;7.58;;;;;;;13.73;54.19;94881.59;1687910;83;21220;-70
2021/10/17 09:46:58;;;;;;;11.18;7.70;;;;;;;14.17;52.53;94867.53;1688426;83;21488;-70
2021/10/17 09:49:25;;;;;;;10.93;8.08;;;;;;;14.55;51.61;94873.34;1693151;83;21111;-70
2021/10/17 09:52:14;;;;;;;13.13;7.25;;;;;;;15.03;50.43;94865.19;1692306;83;21229;-69
2021/10/17 09:54:44;;;;;;;8.98;6.97;;;;;;;15.41;49.43;94868.03;1689031;83;21609;-71
2021/10/17 09:57:11;;;;;;;10.23;6.28;;;;;;;15.68;48.24;94863.61;1692866;83;21138;-70
2021/10/17 09:59:38;;;;;;;8.75;6.15;;;;;;;15.95;47.34;94861.18;1691888;83;20995;-67
2021/10/17 10:02:13;;;;;;;10.45;7.25;;;;;;;16.24;47.13;94856.37;1697058;83;21097;-69
2021/10/17 10:04:44;;;;;;;7.78;5.35;;;;;;;16.55;46.73;94853.22;1697400;83;21091;-71
2021/10/17 10:07:12;;;;;;;8.30;6.55;;;;;;;16.98;45.55;94855.72;1699700;83;21028;-71
2021/10/17 10:09:39;;;;;;;11.22;6.53;;;;;;;17.43;44.52;94849.50;1689008;82;21171;-71
2021/10/17 10:12:06;;;;;;;11.68;6.67;;;;;;;17.81;44.03;94840.16;1690843;83;21100;-70
2021/10/17 10:14:33;;;;;;;9.55;5.95;;;;;;;18.15;42.97;94835.67;1691317;83;21042;-72
2021/10/17 10:17:02;;;;;;;6.10;5.47;;;;;;;18.46;42.29;94833.02;1692921;83;21687;-71
2021/10/17 10:19:31;;;;;;;8.63;5.47;;;;;;;18.86;41.47;94836.20;1658082;85;21126;-72
2021/10/17 10:21:58;;;;;;;8.30;6.65;;;;;;;19.15;40.75;94833.08;1686760;83;21132;-71
2021/10/17 10:24:25;;;;;;;7.42;6.03;;;;;;;19.36;40.12;94828.23;1661876;83;21010;-72
2021/10/17 10:26:52;;;;;;;9.33;5.80;;;;;;;19.50;40.01;94831.45;1683603;84;21574;-71
2021/10/17 10:29:32;;;;;;;9.33;6.08;;;;;;;19.72;39.49;94825.93;1699173;82;21106;-71
2021/10/17 10:32:03;;;;;;;10.28;5.92;;;;;;;20.18;38.79;94824.90;1698041;83;21079;-70
2021/10/17 10:34:40;;;;;;;9.38;6.55;;;;;;;20.52;37.49;94817.39;1680158;83;21018;-73
2021/10/17 10:37:24;;;;;;;15.58;6.10;;;;;;;20.63;37.61;94815.21;1693900;83;21573;-71
2021/10/17 10:40:09;;;;;;;10.35;6.17;;;;;;;20.91;36.95;94811.77;1693973;83;21043;-68
2021/10/17 10:42:39;;;;;;;8.75;5.40;;;;;;;21.03;36.73;94803.45;1694405;83;21609;-70
2021/10/17 10:45:32;;;;;;;10.23;6.30;;;;;;;21.28;36.46;94805.16;1684685;82;21506;-71
2021/10/17 10:48:15;;;;;;;14.00;6.35;;;;;;;21.64;35.60;94804.00;1705963;83;21064;-71
2021/10/17 10:50:53;;;;;;;9.95;6.08;;;;;;;21.71;35.23;94802.83;1710490;83;21091;-71
2021/10/17 10:53:54;;;;;;;11.53;7.53;;;;;;;21.69;35.15;94804.61;1704509;83;21164;-72
2021/10/17 10:56:49;;;;;;;8.45;5.37;;;;;;;21.83;35.78;94790.25;1673502;82;21573;-73
2021/10/17 10:59:18;;;;;;;6.83;5.10;;;;;;;22.37;34.48;94797.51;1690301;82;21082;-72
2021/10/17 11:02:14;;;;;;;15.35;5.65;;;;;;;22.77;33.80;94794.48;1696945;83;21159;-71
2021/10/17 11:04:45;;;;;;;7.17;5.22;;;;;;;23.05;33.44;94783.08;1701432;83;21059;-71
2021/10/17 11:07:22;;;;;;;;;;;;;;;23.19;32.73;94781.94;1700131;83;21098;-71
2021/10/17 11:09:54;;;;;;;7.92;5.25;;;;;;;23.28;32.85;94783.62;1687406;83;20179;-70
2021/10/17 11:12:44;;;;;;;7.05;5.58;;;;;;;23.63;32.59;94784.20;1685029;83;21043;-70
2021/10/17 11:15:13;;;;;;;12.50;5.65;;;;;;;23.96;32.28;94778.13;1699432;83;21844;-70
2021/10/17 11:18:08;;;;;;;7.83;5.75;;;;;;;24.41;31.75;94774.74;1686067;83;21303;-70
2021/10/17 11:20:39;;;;;;;7.08;4.75;;;;;;;24.83;31.15;94773.77;1705063;83;21036;-70
2021/10/17 11:23:17;;;;;;;7.00;5.10;;;;;;;24.99;31.02;94765.67;1710180;83;21101;-76
2021/10/17 11:25:57;;;;;;;7.97;4.83;;;;;;;25.07;30.33;94772.94;1686340;82;20991;-73
2021/10/17 11:28:25;;;;;;;7.60;5.17;;;;;;;25.22;30.16;94768.19;1693686;82;21665;-71
2021/10/17 11:31:16;;;;;;;5.37;4.25;;;;;;;25.28;29.62;94767.45;1690185;82;21141;-71
2021/10/17 11:33:44;;;;;;;11.53;6.08;;;;;;;25.33;30.44;94763.09;1688099;83;21212;-75
2021/10/17 11:36:14;;;;;;;7.95;5.28;;;;;;;25.63;29.58;94754.30;1690961;82;21179;-71
2021/10/17 11:38:43;;;;;;;9.00;5.10;;;;;;;25.98;29.41;94753.88;1697829;82;21551;-73
2021/10/17 11:41:14;;;;;;;7.47;4.40;;;;;;;26.27;28.11;94758.33;1682627;83;21217;-76
2021/10/17 11:43:45;;;;;;;7.70;4.97;;;;;;;26.38;29.19;94751.02;1690096;83;21109;-71